Time;durP1;ratioP1;P1;durP2;ratioP2;P2;SDS_P1;SDS_P2;PMS_P1;PMS_P2;Temp;Humidity;BMP_temperature;BMP_pressure;BME280_temperature;BME280_humidity;BME280_pressure;Samples;Min_cycle;Max_cycle;Signal;HPM_P1;HPM_P2
2023/10/04 00:01:38;;;;;;;14.10;7.10;;;;;;;;;;4383699;32;318162;-87
2023/10/04 00:04:06;;;;;;;12.18;6.87;;;;;;;;;;4372419;32;318197;-84
2023/10/04 00:06:35;;;;;;;15.90;7.00;;;;;;;;;;4382706;32;317820;-85
2023/10/04 00:09:09;;;;;;;20.30;8.63;;;;;;;;;;4372159;32;317955;-86
2023/10/04 00:11:38;;;;;;;11.35;6.78;;;;;;;;;;4393401;32;317694;-86
2023/10/04 00:14:07;;;;;;;17.37;7.50;;;;;;;;;;4385023;32;317684;-86
2023/10/04 00:16:34;;;;;;;10.52;6.28;;;;;;;;;;4395226;32;317472;-84
2023/10/04 00:19:06;;;;;;;12.73;7.68;;;;;;;;;;4362746;32;317679;-86
2023/10/04 00:21:35;;;;;;;12.75;6.97;;;;;;;;;;4394063;32;317554;-85
2023/10/04 00:24:02;;;;;;;13.20;8.02;;;;;;;;;;4382647;32;317442;-86
2023/10/04 00:26:31;;;;;;;14.57;7.65;;;;;;;;;;4395207;32;317804;-86
2023/10/04 00:28:58;;;;;;;13.27;7.93;;;;;;;;;;4377318;32;318042;-85
2023/10/04 00:31:26;;;;;;;15.65;8.10;;;;;;;;;;4381597;32;317850;-85
2023/10/04 00:33:53;;;;;;;15.25;7.62;;;;;;;;;;4373038;32;343355;-86
2023/10/04 00:36:20;;;;;;;15.10;7.35;;;;;;;;;;4382378;32;317986;-85
2023/10/04 00:38:50;;;;;;;13.25;7.97;;;;;;;;;;4383100;32;317963;-85
2023/10/04 00:41:19;;;;;;;12.70;8.23;;;;;;;;;;4365227;32;417333;-85
2023/10/04 00:43:50;;;;;;;15.20;8.63;;;;;;;;;;4381961;32;327694;-85
2023/10/04 00:46:20;;;;;;;20.88;9.30;;;;;;;;;;4368859;32;417004;-86
2023/10/04 00:48:49;;;;;;;13.32;7.97;;;;;;;;;;4382572;32;318019;-87
2023/10/04 00:51:22;;;;;;;13.32;8.40;;;;;;;;;;4363407;32;416668;-86
2023/10/04 00:53:53;;;;;;;11.57;8.32;;;;;;;;;;4381463;32;317776;-86
2023/10/04 00:56:21;;;;;;;13.77;8.15;;;;;;;;;;4382557;32;317979;-85
2023/10/04 00:58:49;;;;;;;11.82;7.47;;;;;;;;;;4382483;32;317845;-86
2023/10/04 01:01:16;;;;;;;12.05;8.07;;;;;;;;;;4367179;32;416376;-86
2023/10/04 01:03:45;;;;;;;14.43;8.00;;;;;;;;;;4381061;32;317899;-87
2023/10/04 01:06:13;;;;;;;16.00;8.35;;;;;;;;;;4372181;32;326424;-85
2023/10/04 01:08:41;;;;;;;18.48;8.85;;;;;;;;;;4381564;32;317743;-83
2023/10/04 01:11:09;;;;;;;16.60;9.02;;;;;;;;;;4369028;32;317694;-85
2023/10/04 01:13:38;;;;;;;15.95;8.88;;;;;;;;;;4383719;32;317588;-86
2023/10/04 01:16:09;;;;;;;17.23;8.43;;;;;;;;;;4373375;32;318241;-86
2023/10/04 01:18:37;;;;;;;13.50;7.10;;;;;;;;;;4383337;32;316619;-86
2023/10/04 01:21:05;;;;;;;16.62;9.25;;;;;;;;;;4366378;32;317738;-87
2023/10/04 01:23:34;;;;;;;13.43;9.00;;;;;;;;;;4380563;32;317919;-86
2023/10/04 01:26:02;;;;;;;16.17;8.97;;;;;;;;;;4370281;32;330861;-86
2023/10/04 01:28:30;;;;;;;17.37;10.05;;;;;;;;;;4381140;32;357734;-85
2023/10/04 01:31:01;;;;;;;17.87;9.25;;;;;;;;;;4371760;32;318704;-85
2023/10/04 01:33:30;;;;;;;14.80;9.45;;;;;;;;;;4380741;32;317687;-86
2023/10/04 01:35:57;;;;;;;14.63;8.63;;;;;;;;;;4370983;32;317472;-85
2023/10/04 01:38:27;;;;;;;19.12;8.23;;;;;;;;;;4379904;32;317848;-85
2023/10/04 01:40:56;;;;;;;15.57;9.00;;;;;;;;;;4371724;32;317782;-86
2023/10/04 01:43:25;;;;;;;14.10;8.80;;;;;;;;;;4378005;32;318021;-85
2023/10/04 01:45:55;;;;;;;15.40;9.73;;;;;;;;;;4371714;32;318037;-86
2023/10/04 01:48:22;;;;;;;18.02;8.60;;;;;;;;;;4382174;32;317918;-86
2023/10/04 01:50:52;;;;;;;21.98;9.65;;;;;;;;;;4372038;32;318009;-86
2023/10/04 01:53:21;;;;;;;17.52;9.65;;;;;;;;;;4378120;32;317817;-85
2023/10/04 01:55:48;;;;;;;19.27;8.90;;;;;;;;;;4380625;32;317794;-86
2023/10/04 01:58:23;;;;;;;12.63;8.35;;;;;;;;;;4368107;32;417153;-85
2023/10/04 02:00:50;;;;;;;12.68;7.50;;;;;;;;;;4372294;32;317971;-86
2023/10/04 02:03:17;;;;;;;12.73;8.73;;;;;;;;;;4377860;32;317984;-86
2023/10/04 02:05:45;;;;;;;16.33;9.07;;;;;;;;;;4383165;32;317852;-86
2023/10/04 02:08:13;;;;;;;11.68;8.60;;;;;;;;;;4371421;32;317815;-84
2023/10/04 02:10:42;;;;;;;17.27;7.68;;;;;;;;;;4383719;32;317965;-86
2023/10/04 02:13:15;;;;;;;18.05;8.88;;;;;;;;;;4373567;32;317880;-86
2023/10/04 02:15:47;;;;;;;12.70;7.30;;;;;;;;;;4383661;32;317872;-84
2023/10/04 02:18:14;;;;;;;15.02;8.00;;;;;;;;;;4373566;32;317838;-84
2023/10/04 02:20:43;;;;;;;23.02;9.43;;;;;;;;;;4382840;32;318040;-84
2023/10/04 02:23:11;;;;;;;10.70;7.77;;;;;;;;;;4369867;32;317864;-86
2023/10/04 02:25:39;;;;;;;14.73;8.00;;;;;;;;;;4384943;32;317666;-84
2023/10/04 02:28:11;;;;;;;12.63;8.25;;;;;;;;;;4374480;32;317864;-85
2023/10/04 02:30:38;;;;;;;12.63;7.27;;;;;;;;;;4384229;32;317747;-86
2023/10/04 02:33:13;;;;;;;17.17;9.02;;;;;;;;;;4371544;32;318027;-86
2023/10/04 02:35:44;;;;;;;19.58;7.90;;;;;;;;;;4384255;32;317582;-85
2023/10/04 02:38:19;;;;;;;19.73;7.25;;;;;;;;;;4375408;32;318032;-84
2023/10/04 02:40:50;;;;;;;13.20;8.33;;;;;;;;;;4383307;32;317901;-85
2023/10/04 02:43:17;;;;;;;12.87;8.47;;;;;;;;;;4365557;32;416973;-85
2023/10/04 02:45:47;;;;;;;14.97;8.67;;;;;;;;;;4382223;32;317644;-85
2023/10/04 02:48:16;;;;;;;14.73;9.50;;;;;;;;;;4374695;32;317954;-84
2023/10/04 02:50:44;;;;;;;16.95;9.55;;;;;;;;;;4383121;32;317817;-85
2023/10/04 02:53:13;;;;;;;16.37;9.57;;;;;;;;;;4369392;32;317764;-85
2023/10/04 02:55:42;;;;;;;19.63;9.80;;;;;;;;;;4384269;32;317846;-85
2023/10/04 02:58:12;;;;;;;19.73;9.30;;;;;;;;;;4372580;32;357415;-84
2023/10/04 03:00:45;;;;;;;15.73;8.57;;;;;;;;;;4382929;32;317951;-84
2023/10/04 03:03:14;;;;;;;16.87;8.57;;;;;;;;;;4369667;32;317972;-84
2023/10/04 03:05:44;;;;;;;11.77;7.12;;;;;;;;;;4381765;32;318008;-84
2023/10/04 03:08:12;;;;;;;21.75;8.02;;;;;;;;;;4372738;32;317862;-84
2023/10/04 03:10:40;;;;;;;14.55;8.90;;;;;;;;;;4384017;32;317818;-84
2023/10/04 03:13:15;;;;;;;19.33;8.95;;;;;;;;;;4369301;32;317998;-82
2023/10/04 03:15:46;;;;;;;13.60;8.38;;;;;;;;;;4382765;32;318052;-85
2023/10/04 03:18:18;;;;;;;15.32;9.05;;;;;;;;;;4373919;32;348109;-87
2023/10/04 03:21:00;;;;;;;15.85;8.63;;;;;;;;;;4383764;32;318061;-85
2023/10/04 03:23:33;;;;;;;19.58;8.13;;;;;;;;;;4344992;32;418726;-85
2023/10/04 03:26:01;;;;;;;11.07;7.03;;;;;;;;;;4372555;32;317914;-84
2023/10/04 03:28:33;;;;;;;12.10;8.13;;;;;;;;;;4381242;32;335481;-85
2023/10/04 03:31:04;;;;;;;15.25;7.53;;;;;;;;;;4372558;32;317841;-86
2023/10/04 03:33:32;;;;;;;12.97;7.57;;;;;;;;;;4370588;32;317453;-86
2023/10/04 03:36:04;;;;;;;13.70;8.13;;;;;;;;;;4372307;32;317663;-85
2023/10/04 03:38:34;;;;;;;15.40;8.17;;;;;;;;;;4383726;32;317774;-86
2023/10/04 03:41:03;;;;;;;21.07;8.90;;;;;;;;;;4372750;32;317798;-86
2023/10/04 03:43:31;;;;;;;17.55;9.63;;;;;;;;;;4381199;32;317812;-86
2023/10/04 03:46:03;;;;;;;15.17;9.53;;;;;;;;;;4372421;32;317710;-87
2023/10/04 03:48:30;;;;;;;14.77;9.35;;;;;;;;;;4382971;32;317615;-84
2023/10/04 03:50:58;;;;;;;16.80;10.33;;;;;;;;;;4371886;32;317802;-82
2023/10/04 03:53:27;;;;;;;18.67;9.90;;;;;;;;;;4382099;32;318702;-84
2023/10/04 03:55:54;;;;;;;21.37;9.20;;;;;;;;;;4373664;32;317776;-85
2023/10/04 03:58:21;;;;;;;16.45;8.43;;;;;;;;;;4382646;32;318199;-85
2023/10/04 04:00:50;;;;;;;17.80;10.48;;;;;;;;;;4383315;32;317901;-86
2023/10/04 04:03:18;;;;;;;20.35;11.07;;;;;;;;;;4366550;32;418054;-85
2023/10/04 04:05:46;;;;;;;15.13;9.57;;;;;;;;;;4382826;32;319009;-86
2023/10/04 04:08:14;;;;;;;25.10;12.77;;;;;;;;;;4372984;32;317672;-86
2023/10/04 04:10:46;;;;;;;42.53;18.77;;;;;;;;;;4381806;32;318835;-86
2023/10/04 04:13:14;;;;;;;29.70;15.93;;;;;;;;;;4367535;32;318994;-83
2023/10/04 04:15:41;;;;;;;45.97;22.40;;;;;;;;;;4366626;32;319070;-83
2023/10/04 04:18:13;;;;;;;26.90;14.95;;;;;;;;;;4382419;32;318984;-83
2023/10/04 04:20:41;;;;;;;37.30;18.47;;;;;;;;;;4372654;32;318887;-83
2023/10/04 04:23:10;;;;;;;39.10;21.80;;;;;;;;;;4378627;32;318945;-84
2023/10/04 04:25:39;;;;;;;47.87;30.10;;;;;;;;;;4382970;32;318945;-82
2023/10/04 04:28:11;;;;;;;42.55;28.52;;;;;;;;;;4368761;32;418401;-83
2023/10/04 04:30:39;;;;;;;21.50;14.07;;;;;;;;;;4383228;32;318838;-83
2023/10/04 04:33:07;;;;;;;32.80;12.93;;;;;;;;;;4364753;32;417844;-87
2023/10/04 04:35:51;;;;;;;20.65;9.75;;;;;;;;;;4380507;32;318943;-88
2023/10/04 04:38:19;;;;;;;19.60;11.12;;;;;;;;;;4368950;32;416759;-88
2023/10/04 04:40:48;;;;;;;24.42;11.85;;;;;;;;;;4371476;32;318979;-85
2023/10/04 04:43:35;;;;;;;22.77;11.55;;;;;;;;;;4378014;32;319030;-88
2023/10/04 04:46:07;;;;;;;21.20;11.05;;;;;;;;;;4372048;32;319099;-87
2023/10/04 04:48:36;;;;;;;18.17;10.60;;;;;;;;;;4381247;32;318829;-85
2023/10/04 04:51:06;;;;;;;22.23;11.20;;;;;;;;;;4368722;32;318979;-88
2023/10/04 04:53:34;;;;;;;19.77;11.02;;;;;;;;;;4387148;32;319015;-87
2023/10/04 04:56:02;;;;;;;26.10;12.70;;;;;;;;;;4375268;32;318598;-87
2023/10/04 04:58:32;;;;;;;26.10;11.60;;;;;;;;;;4386272;32;319172;-87
2023/10/04 05:01:03;;;;;;;44.80;13.53;;;;;;;;;;4365349;32;319085;-84
2023/10/04 05:03:31;;;;;;;28.37;12.80;;;;;;;;;;4382408;32;319411;-87
2023/10/04 05:05:59;;;;;;;42.80;13.57;;;;;;;;;;4369011;32;318812;-87
2023/10/04 05:08:27;;;;;;;23.43;12.10;;;;;;;;;;4382887;32;318872;-84
2023/10/04 05:10:55;;;;;;;20.57;11.10;;;;;;;;;;4370882;32;319384;-89
2023/10/04 05:13:23;;;;;;;22.77;10.45;;;;;;;;;;4376249;32;318988;-86
2023/10/04 05:15:54;;;;;;;30.20;11.00;;;;;;;;;;4370827;32;318985;-86
2023/10/04 05:18:22;;;;;;;24.45;10.73;;;;;;;;;;4381116;32;318857;-87
2023/10/04 05:20:53;;;;;;;20.95;10.15;;;;;;;;;;4369426;32;319187;-85
2023/10/04 05:23:23;;;;;;;23.13;8.97;;;;;;;;;;4379195;32;318876;-85
2023/10/04 05:25:52;;;;;;;25.33;13.10;;;;;;;;;;4370063;32;318245;-87
2023/10/04 05:28:20;;;;;;;19.87;11.00;;;;;;;;;;4380708;32;318808;-86
2023/10/04 05:30:48;;;;;;;21.37;11.03;;;;;;;;;;4368914;32;318870;-88
2023/10/04 05:33:18;;;;;;;21.70;11.53;;;;;;;;;;4376670;32;319147;-88
2023/10/04 05:35:47;;;;;;;20.58;10.52;;;;;;;;;;4372261;32;319023;-89
2023/10/04 05:38:17;;;;;;;18.23;9.30;;;;;;;;;;4381356;32;319081;-84
2023/10/04 05:40:46;;;;;;;20.50;10.48;;;;;;;;;;4372932;32;319962;-90
2023/10/04 05:43:15;;;;;;;25.63;10.77;;;;;;;;;;4380547;32;318761;-88
2023/10/04 05:45:43;;;;;;;20.00;10.23;;;;;;;;;;4371665;32;352100;-92
2023/10/04 05:48:11;;;;;;;15.60;10.20;;;;;;;;;;4383168;32;317686;-91
2023/10/04 05:50:41;;;;;;;22.17;11.47;;;;;;;;;;4385556;32;318761;-78
2023/10/04 05:53:08;;;;;;;20.03;10.03;;;;;;;;;;4367042;32;418431;-81
2023/10/04 05:55:38;;;;;;;20.50;10.87;;;;;;;;;;4383921;32;318814;-86
2023/10/04 05:58:07;;;;;;;19.43;10.17;;;;;;;;;;4371597;32;388202;-86
2023/10/04 06:00:37;;;;;;;27.80;9.83;;;;;;;;;;4384617;32;338161;-87
2023/10/04 06:03:07;;;;;;;29.97;10.37;;;;;;;;;;4370216;32;318069;-85
2023/10/04 06:05:35;;;;;;;21.87;11.23;;;;;;;;;;4383705;32;325378;-86
2023/10/04 06:08:06;;;;;;;27.50;11.63;;;;;;;;;;4375278;32;319007;-86
2023/10/04 06:10:34;;;;;;;17.63;10.63;;;;;;;;;;4385386;32;319177;-86
2023/10/04 06:13:02;;;;;;;20.67;10.10;;;;;;;;;;4366583;32;319272;-90
2023/10/04 06:15:31;;;;;;;17.53;10.53;;;;;;;;;;4382415;32;319044;-90
2023/10/04 06:17:59;;;;;;;20.23;11.70;;;;;;;;;;4371768;32;318843;-91
2023/10/04 06:20:28;;;;;;;20.40;11.47;;;;;;;;;;4383708;32;318853;-94
2023/10/04 06:23:00;;;;;;;23.90;12.02;;;;;;;;;;4368944;32;318742;-91
2023/10/04 06:25:30;;;;;;;27.75;12.37;;;;;;;;;;4383983;32;317767;-92
2023/10/04 06:27:58;;;;;;;21.10;11.27;;;;;;;;;;4366970;32;341528;-92
2023/10/04 06:30:27;;;;;;;23.80;11.03;;;;;;;;;;4367657;32;318850;-93
2023/10/04 06:32:56;;;;;;;23.33;11.43;;;;;;;;;;4353854;32;318980;-88
2023/10/04 06:35:25;;;;;;;20.30;9.93;;;;;;;;;;4368595;32;318834;-90
2023/10/04 06:37:53;;;;;;;20.20;9.63;;;;;;;;;;4355331;32;317852;-91
2023/10/04 06:40:22;;;;;;;21.48;11.32;;;;;;;;;;4366705;32;318227;-93
2023/10/04 06:42:52;;;;;;;28.05;11.10;;;;;;;;;;4355731;32;319053;-91
2023/10/04 06:45:22;;;;;;;22.50;10.90;;;;;;;;;;4362976;32;318940;-92
2023/10/04 06:47:50;;;;;;;20.80;10.68;;;;;;;;;;4358016;32;319192;-92
2023/10/04 06:50:19;;;;;;;21.80;10.13;;;;;;;;;;4367444;32;318970;-90
2023/10/04 06:52:47;;;;;;;26.35;11.50;;;;;;;;;;4356896;32;348028;-94
2023/10/04 06:55:15;;;;;;;20.30;10.63;;;;;;;;;;4365547;32;324129;-87
2023/10/04 06:57:43;;;;;;;19.60;11.63;;;;;;;;;;4356209;32;319006;-92
2023/10/04 07:00:15;;;;;;;16.83;10.52;;;;;;;;;;4368877;32;318572;-91
2023/10/04 07:02:44;;;;;;;17.77;11.02;;;;;;;;;;4358429;32;318754;-90
2023/10/04 07:05:16;;;;;;;17.95;10.10;;;;;;;;;;4365306;32;319366;-90
2023/10/04 07:07:44;;;;;;;17.98;10.90;;;;;;;;;;4355209;32;318740;-93
2023/10/04 07:10:14;;;;;;;19.48;10.65;;;;;;;;;;4367482;32;318751;-91
2023/10/04 07:12:43;;;;;;;16.92;10.48;;;;;;;;;;4354505;32;319205;-90
2023/10/04 07:15:13;;;;;;;23.30;10.80;;;;;;;;;;4364114;32;319152;-93
2023/10/04 07:17:42;;;;;;;22.58;9.90;;;;;;;;;;4357195;32;319100;-88
2023/10/04 07:20:14;;;;;;;23.63;10.30;;;;;;;;;;4369311;32;317998;-92
2023/10/04 07:22:43;;;;;;;23.90;9.40;;;;;;;;;;4356772;32;318896;-91
2023/10/04 07:25:12;;;;;;;18.15;9.85;;;;;;;;;;4364128;32;318028;-93
2023/10/04 07:27:42;;;;;;;16.35;10.07;;;;;;;;;;4368974;32;317742;-92
2023/10/04 07:30:12;;;;;;;19.00;8.70;;;;;;;;;;4367457;32;418517;-91
2023/10/04 07:32:43;;;;;;;19.02;9.55;;;;;;;;;;4382463;32;317516;-91
2023/10/04 07:35:13;;;;;;;23.30;10.05;;;;;;;;;;4364697;32;419970;-92
2023/10/04 07:37:41;;;;;;;16.67;9.55;;;;;;;;;;4371952;32;318936;-87
2023/10/04 07:40:10;;;;;;;19.40;10.15;;;;;;;;;;4381955;32;317860;-93
2023/10/04 07:42:39;;;;;;;14.70;9.35;;;;;;;;;;4382150;32;319320;-93
2023/10/04 07:45:08;;;;;;;20.65;10.20;;;;;;;;;;4363739;32;416943;-93
2023/10/04 07:47:37;;;;;;;23.50;10.02;;;;;;;;;;4381903;32;318737;-92
2023/10/04 07:50:09;;;;;;;16.87;8.60;;;;;;;;;;4369634;32;347493;-93
2023/10/04 07:52:37;;;;;;;20.10;11.52;;;;;;;;;;4382882;32;317789;-95
2023/10/04 07:55:07;;;;;;;27.35;10.98;;;;;;;;;;4366442;32;318656;-90
2023/10/04 07:57:37;;;;;;;20.10;9.20;;;;;;;;;;4382037;32;319057;-89
2023/10/04 08:00:06;;;;;;;19.67;8.25;;;;;;;;;;4372957;32;317806;-88
2023/10/04 08:02:33;;;;;;;20.98;10.18;;;;;;;;;;4381717;32;340834;-89
2023/10/04 08:05:01;;;;;;;21.48;9.38;;;;;;;;;;4369075;32;318807;-88
2023/10/04 08:07:29;;;;;;;15.77;8.98;;;;;;;;;;4382884;32;317889;-89
2023/10/04 08:09:58;;;;;;;36.92;10.57;;;;;;;;;;4372815;32;317818;-91
2023/10/04 08:12:26;;;;;;;31.40;8.70;;;;;;;;;;4380225;32;318555;-90
2023/10/04 08:14:56;;;;;;;23.53;10.00;;;;;;;;;;4369577;32;350744;-90
2023/10/04 08:17:24;;;;;;;15.13;9.88;;;;;;;;;;4378263;32;318956;-88
2023/10/04 08:19:51;;;;;;;19.67;9.70;;;;;;;;;;4371887;32;317940;-88
2023/10/04 08:22:19;;;;;;;18.80;9.43;;;;;;;;;;4382626;32;317788;-88
2023/10/04 08:24:49;;;;;;;29.67;9.27;;;;;;;;;;4371144;32;348105;-88
2023/10/04 08:27:17;;;;;;;18.77;9.60;;;;;;;;;;4379184;32;349540;-89
2023/10/04 08:29:45;;;;;;;17.45;10.23;;;;;;;;;;4373444;32;318134;-88
2023/10/04 08:32:12;;;;;;;15.35;9.38;;;;;;;;;;4381177;32;318872;-88
2023/10/04 08:34:40;;;;;;;24.65;10.18;;;;;;;;;;4383271;32;317898;-87
2023/10/04 08:37:08;;;;;;;15.13;8.30;;;;;;;;;;4365354;32;418012;-89
2023/10/04 08:39:36;;;;;;;14.32;8.10;;;;;;;;;;4382181;32;317928;-88
2023/10/04 08:42:05;;;;;;;15.00;8.45;;;;;;;;;;4372322;32;317828;-88
2023/10/04 08:44:33;;;;;;;23.23;14.45;;;;;;;;;;4380063;32;317851;-88
2023/10/04 08:47:05;;;;;;;16.12;9.45;;;;;;;;;;4368182;32;318784;-89
2023/10/04 08:49:45;;;;;;;23.33;9.65;;;;;;;;;;4380834;32;317876;-87
2023/10/04 08:52:21;;;;;;;14.85;9.07;;;;;;;;;;4368702;32;416945;-87
2023/10/04 08:54:55;;;;;;;28.90;10.32;;;;;;;;;;4369951;32;317898;-86
2023/10/04 08:57:24;;;;;;;21.25;8.77;;;;;;;;;;4381618;32;317479;-87
2023/10/04 08:59:55;;;;;;;21.47;9.07;;;;;;;;;;4367151;32;356991;-86
2023/10/04 09:02:24;;;;;;;16.02;8.80;;;;;;;;;;4381464;32;317827;-84
2023/10/04 09:04:56;;;;;;;18.40;9.05;;;;;;;;;;4368113;32;317642;-84
2023/10/04 09:07:23;;;;;;;14.07;8.02;;;;;;;;;;4381339;32;317607;-88
2023/10/04 09:09:57;;;;;;;14.87;8.32;;;;;;;;;;4370698;32;318054;-87
2023/10/04 09:12:26;;;;;;;18.20;8.52;;;;;;;;;;4381985;32;317842;-88
2023/10/04 09:14:55;;;;;;;20.58;8.93;;;;;;;;;;4369268;32;317983;-89
2023/10/04 09:17:25;;;;;;;18.73;8.13;;;;;;;;;;4383715;32;317540;-88
2023/10/04 09:19:53;;;;;;;17.40;8.45;;;;;;;;;;4375393;32;318042;-88
2023/10/04 09:22:31;;;;;;;16.58;8.77;;;;;;;;;;4382980;32;317769;-87
2023/10/04 09:24:59;;;;;;;18.98;8.90;;;;;;;;;;4374184;32;317925;-88
2023/10/04 09:27:29;;;;;;;18.10;9.35;;;;;;;;;;4381673;32;318080;-87
2023/10/04 09:29:58;;;;;;;16.87;9.13;;;;;;;;;;4373733;32;317939;-87
2023/10/04 09:32:43;;;;;;;14.82;9.02;;;;;;;;;;4382639;32;317843;-87
2023/10/04 09:35:10;;;;;;;18.48;9.20;;;;;;;;;;4368925;32;417214;-85
2023/10/04 09:37:39;;;;;;;21.60;8.07;;;;;;;;;;4385111;32;317554;-88
2023/10/04 09:40:08;;;;;;;14.77;8.55;;;;;;;;;;4371558;32;387814;-88
2023/10/04 09:42:51;;;;;;;23.90;9.45;;;;;;;;;;4384080;32;317577;-87
2023/10/04 09:45:21;;;;;;;12.82;8.45;;;;;;;;;;4372041;32;387884;-87
2023/10/04 09:47:51;;;;;;;15.05;8.52;;;;;;;;;;4372181;32;318067;-88
2023/10/04 09:50:23;;;;;;;17.67;8.63;;;;;;;;;;4385274;32;317943;-88
2023/10/04 09:52:51;;;;;;;16.12;9.30;;;;;;;;;;4374270;32;317974;-88
2023/10/04 09:55:21;;;;;;;17.08;9.10;;;;;;;;;;4379730;32;317756;-86
2023/10/04 09:57:50;;;;;;;15.77;7.70;;;;;;;;;;4370695;32;317869;-88
2023/10/04 10:00:22;;;;;;;28.27;8.50;;;;;;;;;;4383750;32;317647;-87
2023/10/04 10:02:53;;;;;;;24.83;8.73;;;;;;;;;;4373600;32;317954;-88
2023/10/04 10:05:27;;;;;;;11.60;7.43;;;;;;;;;;4381275;32;317765;-88
2023/10/04 10:08:04;;;;;;;12.45;8.02;;;;;;;;;;4371288;32;317771;-88
2023/10/04 10:10:34;;;;;;;22.95;9.32;;;;;;;;;;4384097;32;317715;-87
2023/10/04 10:13:05;;;;;;;13.43;8.45;;;;;;;;;;4369140;32;317683;-88
2023/10/04 10:15:34;;;;;;;14.87;8.70;;;;;;;;;;4384364;32;318292;-87
2023/10/04 10:18:01;;;;;;;22.50;9.05;;;;;;;;;;4374574;32;317937;-85
2023/10/04 10:20:30;;;;;;;15.13;8.77;;;;;;;;;;4384043;32;317755;-87
2023/10/04 10:23:13;;;;;;;18.23;8.75;;;;;;;;;;4371757;32;341004;-88
2023/10/04 10:25:41;;;;;;;37.15;26.98;;;;;;;;;;4382603;32;317741;-86
2023/10/04 10:28:23;;;;;;;15.65;9.65;;;;;;;;;;4383090;32;317635;-86
2023/10/04 10:31:00;;;;;;;13.77;8.55;;;;;;;;;;4373848;32;317673;-86
2023/10/04 10:33:28;;;;;;;19.50;9.15;;;;;;;;;;4385010;32;317793;-86
2023/10/04 10:36:00;;;;;;;16.50;8.43;;;;;;;;;;4372963;32;347823;-85
2023/10/04 10:38:49;;;;;;;19.67;9.00;;;;;;;;;;4381774;32;317764;-85
2023/10/04 10:41:55;;;;;;;17.02;9.05;;;;;;;;;;4346080;32;421370;-87
2023/10/04 10:44:30;;;;;;;21.33;10.23;;;;;;;;;;4351348;32;418178;-85
2023/10/04 10:46:58;;;;;;;22.08;9.32;;;;;;;;;;4368713;32;318731;-88
2023/10/04 10:49:44;;;;;;;15.70;9.45;;;;;;;;;;4384892;32;317779;-85
2023/10/04 10:52:20;;;;;;;17.98;8.57;;;;;;;;;;4368493;32;418451;-88
2023/10/04 10:54:48;;;;;;;12.57;8.45;;;;;;;;;;4372956;32;317704;-85
2023/10/04 10:57:15;;;;;;;15.88;9.05;;;;;;;;;;4380905;32;317783;-83
2023/10/04 10:59:46;;;;;;;16.90;9.65;;;;;;;;;;4371062;32;317672;-83
2023/10/04 11:02:13;;;;;;;13.93;9.07;;;;;;;;;;4384564;32;317901;-85
2023/10/04 11:04:41;;;;;;;16.40;8.88;;;;;;;;;;4378356;32;317590;-88
2023/10/04 11:07:11;;;;;;;15.90;9.05;;;;;;;;;;4378482;32;317575;-87
2023/10/04 11:09:39;;;;;;;19.65;9.35;;;;;;;;;;4381101;32;317655;-85
2023/10/04 11:12:08;;;;;;;14.35;7.37;;;;;;;;;;4371055;32;417074;-88
2023/10/04 11:14:37;;;;;;;13.35;8.15;;;;;;;;;;4384100;32;317771;-86
2023/10/04 11:17:06;;;;;;;10.95;6.85;;;;;;;;;;4369172;32;318135;-86
2023/10/04 11:19:34;;;;;;;17.87;7.47;;;;;;;;;;4382163;32;317546;-87
2023/10/04 11:22:02;;;;;;;16.77;7.68;;;;;;;;;;4374007;32;317695;-86
2023/10/04 11:24:30;;;;;;;14.52;7.60;;;;;;;;;;4383840;32;317748;-85
2023/10/04 11:26:58;;;;;;;28.37;9.53;;;;;;;;;;4366174;32;318142;-88
2023/10/04 11:29:28;;;;;;;22.45;9.65;;;;;;;;;;4384588;32;317701;-86
2023/10/04 11:31:58;;;;;;;14.73;7.30;;;;;;;;;;4373079;32;317852;-84
2023/10/04 11:34:27;;;;;;;17.85;7.03;;;;;;;;;;4383557;32;320584;-83
2023/10/04 11:37:00;;;;;;;13.23;7.17;;;;;;;;;;4369307;32;317742;-87
2023/10/04 11:39:33;;;;;;;10.48;6.32;;;;;;;;;;4382739;32;317738;-84
2023/10/04 11:42:02;;;;;;;12.70;7.10;;;;;;;;;;4373470;32;317867;-83
2023/10/04 11:44:31;;;;;;;14.70;6.35;;;;;;;;;;4380556;32;317799;-84
2023/10/04 11:47:01;;;;;;;13.93;6.65;;;;;;;;;;4372061;32;318056;-86
2023/10/04 11:49:30;;;;;;;15.63;7.30;;;;;;;;;;4381369;32;317953;-86
2023/10/04 11:52:00;;;;;;;9.38;6.10;;;;;;;;;;4372299;32;317780;-85
2023/10/04 11:54:38;;;;;;;14.65;6.47;;;;;;;;;;4382270;32;316506;-85
2023/10/04 11:57:06;;;;;;;9.75;6.78;;;;;;;;;;4364994;32;416715;-85
2023/10/04 11:59:34;;;;;;;10.77;6.25;;;;;;;;;;4381732;32;316884;-85
2023/10/04 12:02:02;;;;;;;14.40;7.72;;;;;;;;;;4371704;32;317914;-84
2023/10/04 12:04:32;;;;;;;11.05;6.00;;;;;;;;;;4382787;32;318123;-83
2023/10/04 12:07:01;;;;;;;12.95;6.97;;;;;;;;;;4368158;32;317748;-83
2023/10/04 12:09:31;;;;;;;11.75;6.10;;;;;;;;;;4383028;32;317616;-85
2023/10/04 12:12:01;;;;;;;18.33;6.60;;;;;;;;;;4370801;32;317823;-85
2023/10/04 12:14:31;;;;;;;12.48;6.15;;;;;;;;;;4381405;32;318029;-85
2023/10/04 12:17:05;;;;;;;16.73;6.95;;;;;;;;;;4371368;32;317762;-86
2023/10/04 12:19:35;;;;;;;10.52;6.20;;;;;;;;;;4383474;32;317651;-85
2023/10/04 12:22:08;;;;;;;19.35;6.65;;;;;;;;;;4374009;32;317789;-85
2023/10/04 12:24:36;;;;;;;12.10;6.32;;;;;;;;;;4381855;32;318043;-85
2023/10/04 12:27:07;;;;;;;15.43;5.70;;;;;;;;;;4368200;32;317656;-86
2023/10/04 12:29:35;;;;;;;10.10;6.37;;;;;;;;;;4381639;32;317848;-83
2023/10/04 12:32:03;;;;;;;10.65;5.43;;;;;;;;;;4372915;32;317688;-84
2023/10/04 12:34:31;;;;;;;11.25;5.05;;;;;;;;;;4383853;32;317702;-83
2023/10/04 12:37:01;;;;;;;18.65;6.40;;;;;;;;;;4371537;32;317642;-86
2023/10/04 12:39:30;;;;;;;14.57;7.07;;;;;;;;;;4380851;32;317689;-83
2023/10/04 12:41:59;;;;;;;9.90;5.53;;;;;;;;;;4373878;32;317578;-84
2023/10/04 12:44:26;;;;;;;13.15;5.20;;;;;;;;;;4381485;32;316635;-84
2023/10/04 12:46:54;;;;;;;11.20;5.60;;;;;;;;;;4368920;32;317837;-87
2023/10/04 12:49:23;;;;;;;12.45;6.03;;;;;;;;;;4382426;32;317570;-84
2023/10/04 12:51:50;;;;;;;8.63;4.72;;;;;;;;;;4372925;32;317656;-83
2023/10/04 12:54:23;;;;;;;10.13;5.65;;;;;;;;;;4382680;32;316657;-84
2023/10/04 12:56:55;;;;;;;14.07;5.35;;;;;;;;;;4371562;32;317954;-85
2023/10/04 12:59:23;;;;;;;18.42;5.70;;;;;;;;;;4381462;32;317689;-84
2023/10/04 13:01:54;;;;;;;11.10;5.20;;;;;;;;;;4372231;32;317974;-85
2023/10/04 13:04:22;;;;;;;10.63;5.37;;;;;;;;;;4381250;32;317763;-84
2023/10/04 13:06:51;;;;;;;10.90;5.50;;;;;;;;;;4371025;32;317986;-85
2023/10/04 13:09:26;;;;;;;13.02;4.47;;;;;;;;;;4378323;32;317844;-84
2023/10/04 13:11:53;;;;;;;20.92;4.87;;;;;;;;;;4373108;32;318322;-85
2023/10/04 13:14:21;;;;;;;20.12;5.80;;;;;;;;;;4380619;32;318106;-86
2023/10/04 13:16:49;;;;;;;13.35;5.62;;;;;;;;;;4372575;32;317824;-86
2023/10/04 13:19:19;;;;;;;12.48;5.55;;;;;;;;;;4381151;32;317832;-83
2023/10/04 13:21:47;;;;;;;15.07;5.55;;;;;;;;;;4371490;32;317933;-85
2023/10/04 13:24:14;;;;;;;9.82;4.87;;;;;;;;;;4392181;32;317636;-84
2023/10/04 13:26:45;;;;;;;14.52;6.50;;;;;;;;;;4373049;32;316951;-86
2023/10/04 13:29:14;;;;;;;11.38;5.65;;;;;;;;;;4380332;32;317984;-86
2023/10/04 13:31:42;;;;;;;12.80;5.12;;;;;;;;;;4372800;32;317798;-85
2023/10/04 13:34:09;;;;;;;12.68;5.78;;;;;;;;;;4381810;32;353248;-84
2023/10/04 13:36:37;;;;;;;18.50;6.20;;;;;;;;;;4380846;32;320599;-83
2023/10/04 13:39:10;;;;;;;13.23;5.32;;;;;;;;;;4371563;32;317846;-86
2023/10/04 13:41:38;;;;;;;11.12;5.12;;;;;;;;;;4382514;32;317970;-83
2023/10/04 13:44:08;;;;;;;16.52;5.87;;;;;;;;;;4367071;32;419930;-82
2023/10/04 13:46:36;;;;;;;13.00;5.25;;;;;;;;;;4380307;32;318326;-82
2023/10/04 13:49:05;;;;;;;13.32;6.10;;;;;;;;;;4364800;32;317941;-83
2023/10/04 13:51:33;;;;;;;8.75;4.97;;;;;;;;;;4382317;32;317722;-83
2023/10/04 13:54:00;;;;;;;11.18;5.22;;;;;;;;;;4371509;32;316863;-83
2023/10/04 13:56:28;;;;;;;13.77;5.30;;;;;;;;;;4381048;32;318123;-83
2023/10/04 13:58:58;;;;;;;10.45;5.50;;;;;;;;;;4369737;32;317674;-87
2023/10/04 14:01:27;;;;;;;17.17;5.65;;;;;;;;;;4382025;32;317775;-83
2023/10/04 14:03:56;;;;;;;18.92;5.70;;;;;;;;;;4373042;32;317994;-83
2023/10/04 14:06:24;;;;;;;18.95;5.43;;;;;;;;;;4383669;32;317740;-83
2023/10/04 14:08:56;;;;;;;17.98;6.15;;;;;;;;;;4372344;32;344935;-87
2023/10/04 14:11:23;;;;;;;25.17;5.95;;;;;;;;;;4382444;32;342386;-84
2023/10/04 14:13:51;;;;;;;22.02;6.90;;;;;;;;;;4373097;32;317705;-84
2023/10/04 14:16:19;;;;;;;11.82;5.82;;;;;;;;;;4384884;32;317749;-83
2023/10/04 14:18:48;;;;;;;19.48;6.75;;;;;;;;;;4373686;32;317835;-84
2023/10/04 14:21:16;;;;;;;14.48;5.35;;;;;;;;;;4384368;32;317751;-83
2023/10/04 14:23:45;;;;;;;12.52;5.47;;;;;;;;;;4373470;32;318297;-82
2023/10/04 14:26:12;;;;;;;11.18;6.05;;;;;;;;;;4384753;32;317767;-82
2023/10/04 14:28:39;;;;;;;15.52;7.10;;;;;;;;;;4384393;32;317928;-82